sensor_id;sensor_type;location;lat;lon;timestamp;P1;durP1;ratioP1;P2;durP2;ratioP2
55003;SDS011;40900;52.710;6.438;2022-09-03T00:00:14;4.25;;;1.73;;
55003;SDS011;40900;52.710;6.438;2022-09-03T00:02:43;2.15;;;1.15;;
55003;SDS011;40900;52.710;6.438;2022-09-03T00:05:23;2.58;;;1.30;;
55003;SDS011;40900;52.710;6.438;2022-09-03T00:07:58;5.82;;;1.33;;
55003;SDS011;40900;52.710;6.438;2022-09-03T00:10:45;2.45;;;1.30;;
55003;SDS011;40900;52.710;6.438;2022-09-03T00:13:22;2.72;;;1.50;;
55003;SDS011;40900;52.710;6.438;2022-09-03T00:15:57;2.83;;;1.20;;
55003;SDS011;40900;52.710;6.438;2022-09-03T00:18:26;3.45;;;1.70;;
55003;SDS011;40900;52.710;6.438;2022-09-03T00:21:01;4.82;;;1.30;;
55003;SDS011;40900;52.710;6.438;2022-09-03T00:23:33;3.53;;;1.30;;
55003;SDS011;40900;52.710;6.438;2022-09-03T00:28:40;3.60;;;1.30;;
55003;SDS011;40900;52.710;6.438;2022-09-03T00:31:31;2.85;;;1.30;;
55003;SDS011;40900;52.710;6.438;2022-09-03T00:33:59;7.78;;;1.40;;
55003;SDS011;40900;52.710;6.438;2022-09-03T00:36:47;4.03;;;1.15;;
55003;SDS011;40900;52.710;6.438;2022-09-03T00:39:18;6.20;;;1.52;;
55003;SDS011;40900;52.710;6.438;2022-09-03T00:50:18;1.13;;;0.90;;
55003;SDS011;40900;52.710;6.438;2022-09-03T01:04:34;2.20;;;1.08;;
55003;SDS011;40900;52.710;6.438;2022-09-03T01:12:57;1.80;;;1.30;;
55003;SDS011;40900;52.710;6.438;2022-09-03T01:15:51;3.42;;;1.25;;
55003;SDS011;40900;52.710;6.438;2022-09-03T01:21:21;2.47;;;1.10;;
55003;SDS011;40900;52.710;6.438;2022-09-03T01:24:29;3.95;;;1.00;;
55003;SDS011;40900;52.710;6.438;2022-09-03T01:27:07;4.10;;;1.10;;
55003;SDS011;40900;52.710;6.438;2022-09-03T01:32:57;3.05;;;1.05;;
55003;SDS011;40900;52.710;6.438;2022-09-03T01:35:59;4.35;;;1.20;;
55003;SDS011;40900;52.710;6.438;2022-09-03T01:47:27;2.45;;;1.30;;
55003;SDS011;40900;52.710;6.438;2022-09-03T01:53:25;3.15;;;1.10;;
55003;SDS011;40900;52.710;6.438;2022-09-03T01:59:08;3.95;;;1.10;;
55003;SDS011;40900;52.710;6.438;2022-09-03T02:01:46;2.53;;;1.10;;
55003;SDS011;40900;52.710;6.438;2022-09-03T02:04:24;3.95;;;1.10;;
55003;SDS011;40900;52.710;6.438;2022-09-03T02:06:51;4.82;;;1.13;;
55003;SDS011;40900;52.710;6.438;2022-09-03T02:09:18;4.78;;;1.23;;
55003;SDS011;40900;52.710;6.438;2022-09-03T02:11:53;3.20;;;1.10;;
55003;SDS011;40900;52.710;6.438;2022-09-03T02:14:23;2.72;;;1.00;;
55003;SDS011;40900;52.710;6.438;2022-09-03T02:16:51;2.83;;;0.98;;
55003;SDS011;40900;52.710;6.438;2022-09-03T02:19:18;1.67;;;1.00;;
55003;SDS011;40900;52.710;6.438;2022-09-03T02:21:51;3.50;;;1.30;;
55003;SDS011;40900;52.710;6.438;2022-09-03T02:24:19;3.35;;;1.10;;
55003;SDS011;40900;52.710;6.438;2022-09-03T02:26:45;2.13;;;0.98;;
55003;SDS011;40900;52.710;6.438;2022-09-03T02:29:11;2.00;;;1.00;;
55003;SDS011;40900;52.710;6.438;2022-09-03T02:31:39;3.50;;;1.10;;
55003;SDS011;40900;52.710;6.438;2022-09-03T02:34:05;3.53;;;0.90;;
55003;SDS011;40900;52.710;6.438;2022-09-03T02:36:33;2.67;;;1.08;;
55003;SDS011;40900;52.710;6.438;2022-09-03T02:39:07;2.17;;;1.08;;
55003;SDS011;40900;52.710;6.438;2022-09-03T02:41:33;3.85;;;1.90;;
55003;SDS011;40900;52.710;6.438;2022-09-03T02:46:32;8.52;;;1.20;;
55003;SDS011;40900;52.710;6.438;2022-09-03T02:49:02;2.83;;;0.87;;
55003;SDS011;40900;52.710;6.438;2022-09-03T02:51:38;2.97;;;1.15;;
55003;SDS011;40900;52.710;6.438;2022-09-03T02:54:06;7.35;;;1.13;;
55003;SDS011;40900;52.710;6.438;2022-09-03T02:56:32;3.92;;;1.05;;
55003;SDS011;40900;52.710;6.438;2022-09-03T02:58:58;2.17;;;1.00;;
55003;SDS011;40900;52.710;6.438;2022-09-03T03:01:24;2.28;;;1.10;;
55003;SDS011;40900;52.710;6.438;2022-09-03T03:03:50;8.52;;;1.50;;
55003;SDS011;40900;52.710;6.438;2022-09-03T03:06:16;5.03;;;1.20;;
55003;SDS011;40900;52.710;6.438;2022-09-03T03:08:45;3.95;;;1.20;;
55003;SDS011;40900;52.710;6.438;2022-09-03T03:11:11;3.75;;;1.05;;
55003;SDS011;40900;52.710;6.438;2022-09-03T03:13:43;4.63;;;1.10;;
55003;SDS011;40900;52.710;6.438;2022-09-03T03:16:09;1.77;;;0.93;;
55003;SDS011;40900;52.710;6.438;2022-09-03T03:18:36;3.70;;;1.30;;
55003;SDS011;40900;52.710;6.438;2022-09-03T03:21:09;3.00;;;1.40;;
55003;SDS011;40900;52.710;6.438;2022-09-03T03:23:36;5.18;;;1.42;;
55003;SDS011;40900;52.710;6.438;2022-09-03T03:26:03;3.45;;;1.02;;
55003;SDS011;40900;52.710;6.438;2022-09-03T03:28:30;2.15;;;1.08;;
55003;SDS011;40900;52.710;6.438;2022-09-03T03:31:03;1.92;;;1.10;;
55003;SDS011;40900;52.710;6.438;2022-09-03T03:33:30;1.60;;;1.08;;
55003;SDS011;40900;52.710;6.438;2022-09-03T03:35:55;6.05;;;1.10;;
55003;SDS011;40900;52.710;6.438;2022-09-03T03:38:21;3.63;;;0.88;;
55003;SDS011;40900;52.710;6.438;2022-09-03T03:40:46;1.95;;;0.90;;
55003;SDS011;40900;52.710;6.438;2022-09-03T03:43:12;5.25;;;1.02;;
55003;SDS011;40900;52.710;6.438;2022-09-03T03:45:38;3.63;;;1.20;;
55003;SDS011;40900;52.710;6.438;2022-09-03T03:48:04;3.85;;;1.05;;
55003;SDS011;40900;52.710;6.438;2022-09-03T03:50:29;4.03;;;1.20;;
55003;SDS011;40900;52.710;6.438;2022-09-03T03:52:58;3.45;;;1.10;;
55003;SDS011;40900;52.710;6.438;2022-09-03T03:55:25;6.53;;;1.15;;
55003;SDS011;40900;52.710;6.438;2022-09-03T03:57:50;4.15;;;1.10;;
55003;SDS011;40900;52.710;6.438;2022-09-03T04:00:16;6.05;;;1.17;;
55003;SDS011;40900;52.710;6.438;2022-09-03T04:02:42;3.88;;;1.33;;
55003;SDS011;40900;52.710;6.438;2022-09-03T04:05:08;2.17;;;0.95;;
55003;SDS011;40900;52.710;6.438;2022-09-03T04:07:34;3.85;;;1.02;;
55003;SDS011;40900;52.710;6.438;2022-09-03T04:09:59;5.97;;;1.10;;
55003;SDS011;40900;52.710;6.438;2022-09-03T04:12:25;4.30;;;1.30;;
55003;SDS011;40900;52.710;6.438;2022-09-03T04:14:51;3.05;;;1.10;;
55003;SDS011;40900;52.710;6.438;2022-09-03T04:17:17;5.63;;;1.08;;
55003;SDS011;40900;52.710;6.438;2022-09-03T04:19:42;4.43;;;1.05;;
55003;SDS011;40900;52.710;6.438;2022-09-03T04:22:11;3.25;;;1.13;;
55003;SDS011;40900;52.710;6.438;2022-09-03T04:24:39;3.67;;;1.25;;
55003;SDS011;40900;52.710;6.438;2022-09-03T04:27:05;3.53;;;1.20;;
55003;SDS011;40900;52.710;6.438;2022-09-03T04:29:31;1.67;;;1.10;;
55003;SDS011;40900;52.710;6.438;2022-09-03T04:31:56;2.72;;;1.08;;
55003;SDS011;40900;52.710;6.438;2022-09-03T04:34:40;3.42;;;1.35;;
55003;SDS011;40900;52.710;6.438;2022-09-03T04:37:06;3.60;;;0.88;;
55003;SDS011;40900;52.710;6.438;2022-09-03T04:39:33;2.05;;;1.00;;
55003;SDS011;40900;52.710;6.438;2022-09-03T04:41:59;3.35;;;0.93;;
55003;SDS011;40900;52.710;6.438;2022-09-03T04:44:25;4.18;;;1.00;;
55003;SDS011;40900;52.710;6.438;2022-09-03T04:46:50;6.18;;;1.38;;
55003;SDS011;40900;52.710;6.438;2022-09-03T04:49:17;2.70;;;1.20;;
55003;SDS011;40900;52.710;6.438;2022-09-03T04:51:43;3.67;;;1.30;;
55003;SDS011;40900;52.710;6.438;2022-09-03T04:54:09;3.55;;;0.93;;
55003;SDS011;40900;52.710;6.438;2022-09-03T04:56:35;2.72;;;1.15;;
55003;SDS011;40900;52.710;6.438;2022-09-03T04:59:03;4.15;;;1.08;;
55003;SDS011;40900;52.710;6.438;2022-09-03T05:01:31;4.25;;;1.02;;
55003;SDS011;40900;52.710;6.438;2022-09-03T05:03:58;2.58;;;1.10;;
55003;SDS011;40900;52.710;6.438;2022-09-03T05:06:25;5.70;;;1.25;;
55003;SDS011;40900;52.710;6.438;2022-09-03T05:08:52;3.28;;;1.08;;
55003;SDS011;40900;52.710;6.438;2022-09-03T05:11:20;3.35;;;1.17;;
55003;SDS011;40900;52.710;6.438;2022-09-03T05:13:50;4.88;;;1.17;;
55003;SDS011;40900;52.710;6.438;2022-09-03T05:16:18;4.05;;;1.10;;
55003;SDS011;40900;52.710;6.438;2022-09-03T05:18:44;2.47;;;0.90;;
55003;SDS011;40900;52.710;6.438;2022-09-03T05:21:11;2.20;;;1.02;;
55003;SDS011;40900;52.710;6.438;2022-09-03T05:23:41;3.22;;;1.15;;
55003;SDS011;40900;52.710;6.438;2022-09-03T05:26:12;4.22;;;1.40;;
55003;SDS011;40900;52.710;6.438;2022-09-03T05:28:40;3.10;;;1.10;;
55003;SDS011;40900;52.710;6.438;2022-09-03T05:31:08;2.78;;;1.20;;
55003;SDS011;40900;52.710;6.438;2022-09-03T05:33:42;2.47;;;1.20;;
55003;SDS011;40900;52.710;6.438;2022-09-03T05:36:14;2.20;;;1.55;;
55003;SDS011;40900;52.710;6.438;2022-09-03T05:38:45;6.47;;;1.27;;
55003;SDS011;40900;52.710;6.438;2022-09-03T05:41:15;5.70;;;1.42;;
55003;SDS011;40900;52.710;6.438;2022-09-03T05:43:41;5.25;;;1.27;;
55003;SDS011;40900;52.710;6.438;2022-09-03T05:46:09;3.22;;;1.00;;
55003;SDS011;40900;52.710;6.438;2022-09-03T05:48:42;5.63;;;1.40;;
55003;SDS011;40900;52.710;6.438;2022-09-03T05:51:10;3.40;;;1.20;;
55003;SDS011;40900;52.710;6.438;2022-09-03T05:53:39;1.85;;;1.20;;
55003;SDS011;40900;52.710;6.438;2022-09-03T05:56:06;3.17;;;1.30;;
55003;SDS011;40900;52.710;6.438;2022-09-03T05:58:39;4.10;;;1.88;;
55003;SDS011;40900;52.710;6.438;2022-09-03T06:03:44;4.82;;;1.52;;
55003;SDS011;40900;52.710;6.438;2022-09-03T06:06:12;6.07;;;1.30;;
55003;SDS011;40900;52.710;6.438;2022-09-03T06:08:38;2.47;;;1.15;;
55003;SDS011;40900;52.710;6.438;2022-09-03T06:11:05;4.30;;;1.30;;
55003;SDS011;40900;52.710;6.438;2022-09-03T06:13:31;2.40;;;1.30;;
55003;SDS011;40900;52.710;6.438;2022-09-03T06:15:59;2.88;;;1.25;;
55003;SDS011;40900;52.710;6.438;2022-09-03T06:18:26;2.50;;;1.20;;
55003;SDS011;40900;52.710;6.438;2022-09-03T06:20:56;5.72;;;1.40;;
55003;SDS011;40900;52.710;6.438;2022-09-03T06:23:23;8.48;;;1.42;;
55003;SDS011;40900;52.710;6.438;2022-09-03T06:26:06;4.18;;;1.30;;
55003;SDS011;40900;52.710;6.438;2022-09-03T06:28:37;4.30;;;1.25;;
55003;SDS011;40900;52.710;6.438;2022-09-03T06:31:04;6.53;;;2.28;;
55003;SDS011;40900;52.710;6.438;2022-09-03T06:33:33;3.28;;;1.20;;
55003;SDS011;40900;52.710;6.438;2022-09-03T06:36:00;7.50;;;1.17;;
55003;SDS011;40900;52.710;6.438;2022-09-03T06:38:29;5.28;;;1.30;;
55003;SDS011;40900;52.710;6.438;2022-09-03T06:40:59;3.08;;;1.55;;
55003;SDS011;40900;52.710;6.438;2022-09-03T06:43:29;2.33;;;1.27;;
55003;SDS011;40900;52.710;6.438;2022-09-03T06:46:01;6.25;;;1.90;;
55003;SDS011;40900;52.710;6.438;2022-09-03T06:48:29;2.35;;;1.40;;
55003;SDS011;40900;52.710;6.438;2022-09-03T06:51:01;4.90;;;1.30;;
55003;SDS011;40900;52.710;6.438;2022-09-03T06:53:30;2.53;;;1.40;;
55003;SDS011;40900;52.710;6.438;2022-09-03T06:56:17;5.55;;;1.48;;
55003;SDS011;40900;52.710;6.438;2022-09-03T06:58:50;4.15;;;1.60;;
55003;SDS011;40900;52.710;6.438;2022-09-03T07:01:21;6.55;;;1.52;;
55003;SDS011;40900;52.710;6.438;2022-09-03T07:03:56;5.10;;;1.40;;
55003;SDS011;40900;52.710;6.438;2022-09-03T07:06:31;2.28;;;1.27;;
55003;SDS011;40900;52.710;6.438;2022-09-03T07:09:01;5.88;;;1.50;;
55003;SDS011;40900;52.710;6.438;2022-09-03T07:11:29;4.78;;;1.70;;
55003;SDS011;40900;52.710;6.438;2022-09-03T07:13:57;4.20;;;1.23;;
55003;SDS011;40900;52.710;6.438;2022-09-03T07:16:28;2.47;;;1.50;;
55003;SDS011;40900;52.710;6.438;2022-09-03T07:18:58;3.70;;;1.30;;
55003;SDS011;40900;52.710;6.438;2022-09-03T07:21:25;3.00;;;1.33;;
55003;SDS011;40900;52.710;6.438;2022-09-03T07:23:54;2.63;;;1.30;;
55003;SDS011;40900;52.710;6.438;2022-09-03T07:26:22;6.78;;;1.70;;
55003;SDS011;40900;52.710;6.438;2022-09-03T07:28:53;4.60;;;1.40;;
55003;SDS011;40900;52.710;6.438;2022-09-03T07:31:23;3.92;;;1.35;;
55003;SDS011;40900;52.710;6.438;2022-09-03T07:33:54;2.35;;;1.42;;
55003;SDS011;40900;52.710;6.438;2022-09-03T07:36:21;4.10;;;1.70;;
55003;SDS011;40900;52.710;6.438;2022-09-03T07:38:48;13.93;;;2.35;;
55003;SDS011;40900;52.710;6.438;2022-09-03T07:41:14;6.47;;;1.70;;
55003;SDS011;40900;52.710;6.438;2022-09-03T07:43:41;5.32;;;1.77;;
55003;SDS011;40900;52.710;6.438;2022-09-03T07:46:09;20.17;;;3.00;;
55003;SDS011;40900;52.710;6.438;2022-09-03T07:48:39;5.60;;;1.60;;
55003;SDS011;40900;52.710;6.438;2022-09-03T07:51:05;5.60;;;1.55;;
55003;SDS011;40900;52.710;6.438;2022-09-03T07:53:31;2.75;;;1.52;;
55003;SDS011;40900;52.710;6.438;2022-09-03T07:56:05;4.30;;;1.42;;
55003;SDS011;40900;52.710;6.438;2022-09-03T07:58:32;4.70;;;1.70;;
55003;SDS011;40900;52.710;6.438;2022-09-03T08:01:02;2.35;;;1.40;;
55003;SDS011;40900;52.710;6.438;2022-09-03T08:03:30;12.20;;;2.38;;
55003;SDS011;40900;52.710;6.438;2022-09-03T08:05:59;2.90;;;1.60;;
55003;SDS011;40900;52.710;6.438;2022-09-03T08:08:29;6.70;;;1.45;;
55003;SDS011;40900;52.710;6.438;2022-09-03T08:11:18;6.32;;;1.58;;
55003;SDS011;40900;52.710;6.438;2022-09-03T08:14:07;10.27;;;2.45;;
55003;SDS011;40900;52.710;6.438;2022-09-03T08:16:37;6.03;;;1.80;;
55003;SDS011;40900;52.710;6.438;2022-09-03T08:19:07;9.75;;;1.83;;
55003;SDS011;40900;52.710;6.438;2022-09-03T08:21:34;5.00;;;1.40;;
55003;SDS011;40900;52.710;6.438;2022-09-03T08:24:00;7.47;;;1.90;;
55003;SDS011;40900;52.710;6.438;2022-09-03T08:26:30;19.08;;;3.53;;
55003;SDS011;40900;52.710;6.438;2022-09-03T08:28:58;11.75;;;2.40;;
55003;SDS011;40900;52.710;6.438;2022-09-03T08:31:24;5.47;;;1.40;;
55003;SDS011;40900;52.710;6.438;2022-09-03T08:33:52;6.05;;;1.50;;
55003;SDS011;40900;52.710;6.438;2022-09-03T08:36:23;9.65;;;1.48;;
55003;SDS011;40900;52.710;6.438;2022-09-03T08:38:50;5.93;;;1.45;;
55003;SDS011;40900;52.710;6.438;2022-09-03T08:41:23;5.80;;;1.60;;
55003;SDS011;40900;52.710;6.438;2022-09-03T08:46:54;4.13;;;1.30;;
55003;SDS011;40900;52.710;6.438;2022-09-03T08:52:04;2.42;;;1.45;;
55003;SDS011;40900;52.710;6.438;2022-09-03T08:54:32;2.20;;;1.20;;
55003;SDS011;40900;52.710;6.438;2022-09-03T08:57:01;2.58;;;1.30;;
55003;SDS011;40900;52.710;6.438;2022-09-03T08:59:31;3.28;;;1.27;;
55003;SDS011;40900;52.710;6.438;2022-09-03T09:10:04;5.22;;;1.40;;
55003;SDS011;40900;52.710;6.438;2022-09-03T09:18:00;6.50;;;1.50;;
55003;SDS011;40900;52.710;6.438;2022-09-03T09:20:39;3.78;;;1.20;;
55003;SDS011;40900;52.710;6.438;2022-09-03T09:23:14;5.00;;;1.50;;
55003;SDS011;40900;52.710;6.438;2022-09-03T09:25:45;8.60;;;1.33;;
55003;SDS011;40900;52.710;6.438;2022-09-03T09:30:50;8.00;;;1.23;;
55003;SDS011;40900;52.710;6.438;2022-09-03T09:33:19;4.38;;;1.38;;
55003;SDS011;40900;52.710;6.438;2022-09-03T09:35:45;4.15;;;1.40;;
55003;SDS011;40900;52.710;6.438;2022-09-03T09:38:12;3.92;;;1.25;;
55003;SDS011;40900;52.710;6.438;2022-09-03T09:40:39;6.90;;;1.42;;
55003;SDS011;40900;52.710;6.438;2022-09-03T09:45:41;2.00;;;1.13;;
55003;SDS011;40900;52.710;6.438;2022-09-03T09:48:16;2.15;;;1.20;;
55003;SDS011;40900;52.710;6.438;2022-09-03T09:50:45;8.65;;;1.42;;
55003;SDS011;40900;52.710;6.438;2022-09-03T09:53:11;2.53;;;1.10;;
55003;SDS011;40900;52.710;6.438;2022-09-03T09:55:52;5.75;;;1.33;;
55003;SDS011;40900;52.710;6.438;2022-09-03T09:58:20;4.00;;;1.20;;
55003;SDS011;40900;52.710;6.438;2022-09-03T10:01:21;5.05;;;1.40;;
55003;SDS011;40900;52.710;6.438;2022-09-03T10:03:55;3.10;;;1.30;;
55003;SDS011;40900;52.710;6.438;2022-09-03T10:06:27;5.88;;;1.20;;
55003;SDS011;40900;52.710;6.438;2022-09-03T10:09:17;5.05;;;1.20;;
55003;SDS011;40900;52.710;6.438;2022-09-03T10:11:48;2.28;;;1.10;;
55003;SDS011;40900;52.710;6.438;2022-09-03T10:14:38;4.70;;;1.45;;
55003;SDS011;40900;52.710;6.438;2022-09-03T10:17:18;3.85;;;1.00;;
55003;SDS011;40900;52.710;6.438;2022-09-03T10:22:55;5.10;;;1.30;;
55003;SDS011;40900;52.710;6.438;2022-09-03T10:25:22;4.00;;;1.27;;
55003;SDS011;40900;52.710;6.438;2022-09-03T10:27:51;6.82;;;1.48;;
55003;SDS011;40900;52.710;6.438;2022-09-03T10:30:20;5.60;;;1.90;;
55003;SDS011;40900;52.710;6.438;2022-09-03T10:35:28;3.45;;;1.20;;
55003;SDS011;40900;52.710;6.438;2022-09-03T10:45:36;5.70;;;1.30;;
55003;SDS011;40900;52.710;6.438;2022-09-03T10:59:26;5.22;;;1.05;;
55003;SDS011;40900;52.710;6.438;2022-09-03T11:07:48;4.78;;;1.00;;
55003;SDS011;40900;52.710;6.438;2022-09-03T11:10:28;7.22;;;1.30;;
55003;SDS011;40900;52.710;6.438;2022-09-03T11:15:39;2.28;;;1.05;;
55003;SDS011;40900;52.710;6.438;2022-09-03T11:18:15;6.75;;;1.23;;
55003;SDS011;40900;52.710;6.438;2022-09-03T11:20:46;4.82;;;1.10;;
55003;SDS011;40900;52.710;6.438;2022-09-03T11:23:14;4.60;;;1.10;;
55003;SDS011;40900;52.710;6.438;2022-09-03T11:25:50;6.35;;;1.30;;
55003;SDS011;40900;52.710;6.438;2022-09-03T11:34:12;3.92;;;1.13;;
55003;SDS011;40900;52.710;6.438;2022-09-03T11:36:50;2.55;;;0.95;;
55003;SDS011;40900;52.710;6.438;2022-09-03T11:41:55;2.58;;;1.10;;
55003;SDS011;40900;52.710;6.438;2022-09-03T11:44:38;4.97;;;1.10;;
55003;SDS011;40900;52.710;6.438;2022-09-03T11:47:16;2.83;;;1.15;;
55003;SDS011;40900;52.710;6.438;2022-09-03T11:49:50;4.93;;;1.10;;
55003;SDS011;40900;52.710;6.438;2022-09-03T11:52:25;2.47;;;1.15;;
55003;SDS011;40900;52.710;6.438;2022-09-03T11:54:52;3.65;;;1.15;;
55003;SDS011;40900;52.710;6.438;2022-09-03T11:57:26;2.50;;;1.10;;
55003;SDS011;40900;52.710;6.438;2022-09-03T12:00:09;2.80;;;1.10;;
55003;SDS011;40900;52.710;6.438;2022-09-03T12:02:36;3.90;;;1.20;;
55003;SDS011;40900;52.710;6.438;2022-09-03T12:10:40;3.17;;;0.93;;
55003;SDS011;40900;52.710;6.438;2022-09-03T12:21:57;3.42;;;1.00;;
55003;SDS011;40900;52.710;6.438;2022-09-03T12:24:25;1.25;;;0.93;;
55003;SDS011;40900;52.710;6.438;2022-09-03T12:26:59;4.32;;;1.20;;
55003;SDS011;40900;52.710;6.438;2022-09-03T12:29:27;3.53;;;1.02;;
55003;SDS011;40900;52.710;6.438;2022-09-03T12:31:55;4.00;;;1.15;;
55003;SDS011;40900;52.710;6.438;2022-09-03T12:34:30;3.78;;;1.02;;
55003;SDS011;40900;52.710;6.438;2022-09-03T12:36:56;1.40;;;1.00;;
55003;SDS011;40900;52.710;6.438;2022-09-03T12:39:26;2.55;;;1.20;;
55003;SDS011;40900;52.710;6.438;2022-09-03T12:42:03;6.80;;;1.10;;
55003;SDS011;40900;52.710;6.438;2022-09-03T12:47:09;2.58;;;1.30;;
55003;SDS011;40900;52.710;6.438;2022-09-03T12:49:38;2.80;;;1.20;;
55003;SDS011;40900;52.710;6.438;2022-09-03T12:54:56;1.73;;;1.10;;
55003;SDS011;40900;52.710;6.438;2022-09-03T12:57:43;2.28;;;0.85;;
55003;SDS011;40900;52.710;6.438;2022-09-03T13:00:13;4.65;;;1.33;;
55003;SDS011;40900;52.710;6.438;2022-09-03T13:05:53;2.92;;;1.15;;
55003;SDS011;40900;52.710;6.438;2022-09-03T13:08:30;3.83;;;1.15;;
55003;SDS011;40900;52.710;6.438;2022-09-03T13:11:00;4.07;;;1.10;;
55003;SDS011;40900;52.710;6.438;2022-09-03T13:13:33;1.95;;;1.10;;
55003;SDS011;40900;52.710;6.438;2022-09-03T13:30:15;3.67;;;1.27;;
55003;SDS011;40900;52.710;6.438;2022-09-03T13:32:55;3.40;;;1.08;;
55003;SDS011;40900;52.710;6.438;2022-09-03T13:35:27;6.03;;;1.05;;
55003;SDS011;40900;52.710;6.438;2022-09-03T13:47:01;5.75;;;1.40;;
55003;SDS011;40900;52.710;6.438;2022-09-03T13:49:52;2.58;;;1.13;;
55003;SDS011;40900;52.710;6.438;2022-09-03T13:52:50;3.65;;;1.10;;
55003;SDS011;40900;52.710;6.438;2022-09-03T13:55:34;3.50;;;1.40;;
55003;SDS011;40900;52.710;6.438;2022-09-03T13:58:18;4.07;;;1.20;;
55003;SDS011;40900;52.710;6.438;2022-09-03T14:03:57;3.20;;;1.02;;
55003;SDS011;40900;52.710;6.438;2022-09-03T14:17:25;3.75;;;1.00;;
55003;SDS011;40900;52.710;6.438;2022-09-03T14:20:12;3.08;;;1.25;;
55003;SDS011;40900;52.710;6.438;2022-09-03T14:25:20;5.85;;;1.33;;
55003;SDS011;40900;52.710;6.438;2022-09-03T14:27:47;6.63;;;1.25;;
55003;SDS011;40900;52.710;6.438;2022-09-03T14:39:01;2.17;;;1.10;;
55003;SDS011;40900;52.710;6.438;2022-09-03T14:41:47;5.03;;;1.40;;
55003;SDS011;40900;52.710;6.438;2022-09-03T14:47:29;3.72;;;1.30;;
55003;SDS011;40900;52.710;6.438;2022-09-03T14:55:46;2.83;;;1.08;;
55003;SDS011;40900;52.710;6.438;2022-09-03T15:15:20;3.17;;;1.30;;
55003;SDS011;40900;52.710;6.438;2022-09-03T15:20:53;2.78;;;1.13;;
55003;SDS011;40900;52.710;6.438;2022-09-03T15:26:44;3.95;;;1.58;;
55003;SDS011;40900;52.710;6.438;2022-09-03T15:39:58;2.63;;;1.30;;
55003;SDS011;40900;52.710;6.438;2022-09-03T15:42:29;4.05;;;1.50;;
55003;SDS011;40900;52.710;6.438;2022-09-03T15:45:00;5.53;;;1.30;;
55003;SDS011;40900;52.710;6.438;2022-09-03T15:47:37;4.78;;;1.10;;
55003;SDS011;40900;52.710;6.438;2022-09-03T15:56:05;6.95;;;1.40;;
55003;SDS011;40900;52.710;6.438;2022-09-03T15:58:41;4.90;;;1.17;;
55003;SDS011;40900;52.710;6.438;2022-09-03T16:15:06;3.05;;;1.40;;
55003;SDS011;40900;52.710;6.438;2022-09-03T16:20:18;2.03;;;1.33;;
55003;SDS011;40900;52.710;6.438;2022-09-03T16:23:17;2.45;;;1.40;;
55003;SDS011;40900;52.710;6.438;2022-09-03T16:26:07;3.72;;;1.40;;
55003;SDS011;40900;52.710;6.438;2022-09-03T16:28:46;2.75;;;1.60;;
55003;SDS011;40900;52.710;6.438;2022-09-03T16:37:13;7.25;;;1.60;;
55003;SDS011;40900;52.710;6.438;2022-09-03T16:40:02;3.63;;;1.40;;
55003;SDS011;40900;52.710;6.438;2022-09-03T16:57:24;6.57;;;1.58;;
55003;SDS011;40900;52.710;6.438;2022-09-03T17:00:14;1.98;;;1.50;;
55003;SDS011;40900;52.710;6.438;2022-09-03T17:05:35;2.90;;;1.50;;
55003;SDS011;40900;52.710;6.438;2022-09-03T17:08:18;3.53;;;1.98;;
55003;SDS011;40900;52.710;6.438;2022-09-03T17:13:33;4.95;;;1.60;;
55003;SDS011;40900;52.710;6.438;2022-09-03T17:29:31;3.75;;;1.50;;
55003;SDS011;40900;52.710;6.438;2022-09-03T17:35:09;2.60;;;1.40;;
55003;SDS011;40900;52.710;6.438;2022-09-03T17:45:48;2.25;;;1.40;;
55003;SDS011;40900;52.710;6.438;2022-09-03T17:53:39;4.80;;;1.70;;
55003;SDS011;40900;52.710;6.438;2022-09-03T17:56:32;6.18;;;1.50;;
55003;SDS011;40900;52.710;6.438;2022-09-03T18:04:42;3.85;;;2.15;;
55003;SDS011;40900;52.710;6.438;2022-09-03T18:12:46;5.00;;;1.73;;
55003;SDS011;40900;52.710;6.438;2022-09-03T18:15:31;5.20;;;1.85;;
55003;SDS011;40900;52.710;6.438;2022-09-03T18:18:11;6.75;;;1.60;;
55003;SDS011;40900;52.710;6.438;2022-09-03T18:20:45;4.03;;;1.63;;
55003;SDS011;40900;52.710;6.438;2022-09-03T18:23:55;6.93;;;2.30;;
55003;SDS011;40900;52.710;6.438;2022-09-03T18:26:58;7.90;;;2.10;;
55003;SDS011;40900;52.710;6.438;2022-09-03T18:32:31;6.40;;;1.70;;
55003;SDS011;40900;52.710;6.438;2022-09-03T18:35:15;3.28;;;1.70;;
55003;SDS011;40900;52.710;6.438;2022-09-03T18:38:02;10.25;;;2.13;;
55003;SDS011;40900;52.710;6.438;2022-09-03T18:43:46;5.90;;;2.42;;
55003;SDS011;40900;52.710;6.438;2022-09-03T18:47:02;5.28;;;1.92;;
55003;SDS011;40900;52.710;6.438;2022-09-03T18:56:52;4.40;;;2.13;;
55003;SDS011;40900;52.710;6.438;2022-09-03T18:59:31;5.00;;;1.83;;
55003;SDS011;40900;52.710;6.438;2022-09-03T19:05:42;7.70;;;2.15;;
55003;SDS011;40900;52.710;6.438;2022-09-03T19:15:19;4.00;;;1.70;;
55003;SDS011;40900;52.710;6.438;2022-09-03T19:18:14;5.13;;;2.67;;
55003;SDS011;40900;52.710;6.438;2022-09-03T19:21:35;8.43;;;1.90;;
55003;SDS011;40900;52.710;6.438;2022-09-03T19:30:35;13.85;;;2.10;;
55003;SDS011;40900;52.710;6.438;2022-09-03T19:33:34;2.40;;;1.67;;
55003;SDS011;40900;52.710;6.438;2022-09-03T19:36:25;7.78;;;1.73;;
55003;SDS011;40900;52.710;6.438;2022-09-03T19:54:01;4.10;;;1.90;;
55003;SDS011;40900;52.710;6.438;2022-09-03T19:56:48;5.03;;;2.10;;
55003;SDS011;40900;52.710;6.438;2022-09-03T19:59:35;5.07;;;2.40;;
55003;SDS011;40900;52.710;6.438;2022-09-03T20:02:23;10.43;;;2.35;;
55003;SDS011;40900;52.710;6.438;2022-09-03T20:05:13;13.63;;;2.28;;
55003;SDS011;40900;52.710;6.438;2022-09-03T20:08:00;8.90;;;2.20;;
55003;SDS011;40900;52.710;6.438;2022-09-03T20:10:46;3.72;;;2.00;;
55003;SDS011;40900;52.710;6.438;2022-09-03T20:13:15;30.30;;;2.60;;
55003;SDS011;40900;52.710;6.438;2022-09-03T20:18:48;4.38;;;2.17;;
55003;SDS011;40900;52.710;6.438;2022-09-03T20:32:41;7.82;;;1.70;;
55003;SDS011;40900;52.710;6.438;2022-09-03T20:35:25;3.67;;;2.00;;
55003;SDS011;40900;52.710;6.438;2022-09-03T20:40:36;7.10;;;1.70;;
55003;SDS011;40900;52.710;6.438;2022-09-03T20:51:32;5.13;;;1.63;;
55003;SDS011;40900;52.710;6.438;2022-09-03T20:54:28;5.50;;;1.48;;
55003;SDS011;40900;52.710;6.438;2022-09-03T20:59:45;5.50;;;1.50;;
55003;SDS011;40900;52.710;6.438;2022-09-03T21:05:16;4.03;;;1.60;;
55003;SDS011;40900;52.710;6.438;2022-09-03T21:08:15;2.10;;;1.42;;
55003;SDS011;40900;52.710;6.438;2022-09-03T21:11:11;2.72;;;1.50;;
55003;SDS011;40900;52.710;6.438;2022-09-03T21:13:55;5.78;;;1.67;;
55003;SDS011;40900;52.710;6.438;2022-09-03T21:19:44;3.15;;;1.88;;
55003;SDS011;40900;52.710;6.438;2022-09-03T21:22:30;4.43;;;1.77;;
55003;SDS011;40900;52.710;6.438;2022-09-03T21:25:24;5.95;;;1.88;;
55003;SDS011;40900;52.710;6.438;2022-09-03T21:28:05;6.60;;;1.60;;
55003;SDS011;40900;52.710;6.438;2022-09-03T21:30:38;2.22;;;1.33;;
55003;SDS011;40900;52.710;6.438;2022-09-03T21:33:10;6.03;;;1.80;;
55003;SDS011;40900;52.710;6.438;2022-09-03T21:35:50;5.00;;;1.52;;
55003;SDS011;40900;52.710;6.438;2022-09-03T21:38:23;5.22;;;1.77;;
55003;SDS011;40900;52.710;6.438;2022-09-03T21:43:33;4.60;;;1.60;;
55003;SDS011;40900;52.710;6.438;2022-09-03T21:46:22;4.70;;;1.52;;
55003;SDS011;40900;52.710;6.438;2022-09-03T21:48:54;4.80;;;1.95;;
55003;SDS011;40900;52.710;6.438;2022-09-03T22:02:22;5.60;;;2.20;;
55003;SDS011;40900;52.710;6.438;2022-09-03T22:04:57;6.35;;;1.70;;
55003;SDS011;40900;52.710;6.438;2022-09-03T22:15:56;4.40;;;2.00;;
55003;SDS011;40900;52.710;6.438;2022-09-03T22:18:42;2.80;;;2.00;;
55003;SDS011;40900;52.710;6.438;2022-09-03T22:26:12;3.83;;;1.50;;
55003;SDS011;40900;52.710;6.438;2022-09-03T22:36:56;3.08;;;1.73;;
55003;SDS011;40900;52.710;6.438;2022-09-03T22:39:40;6.53;;;1.55;;
55003;SDS011;40900;52.710;6.438;2022-09-03T22:47:52;1.60;;;1.35;;
55003;SDS011;40900;52.710;6.438;2022-09-03T22:50:44;6.90;;;1.60;;